Time;durP1;ratioP1;P1;durP2;ratioP2;P2;SDS_P1;SDS_P2;PMS_P1;PMS_P2;Temp;Humidity;BMP_temperature;BMP_pressure;BME280_temperature;BME280_humidity;BME280_pressure;Samples;Min_cycle;Max_cycle;Signal;HPM_P1;HPM_P2
2021/03/02 00:00:53;;;;;;;56.27;26.37;;;4.10;99.90;;;;;;5132542;28;20250;-80
2021/03/02 00:03:38;;;;;;;59.77;27.23;;;4.10;99.90;;;;;;5133691;27;20405;-81
2021/03/02 00:06:24;;;;;;;55.00;26.70;;;4.10;99.90;;;;;;5113059;28;20296;-80
2021/03/02 00:09:09;;;;;;;53.10;25.53;;;4.00;99.90;;;;;;5116581;28;20657;-80
2021/03/02 00:11:54;;;;;;;57.97;28.37;;;4.00;99.90;;;;;;5113472;28;20224;-80
2021/03/02 00:14:40;;;;;;;56.77;26.40;;;4.00;99.90;;;;;;5115122;28;20219;-81
2021/03/02 00:17:30;;;;;;;53.63;24.60;;;4.00;99.90;;;;;;5114196;28;20205;-81
2021/03/02 00:20:19;;;;;;;53.70;24.60;;;4.00;99.90;;;;;;5098430;28;20209;-81
2021/03/02 00:23:07;;;;;;;49.67;22.43;;;3.90;99.90;;;;;;5099445;28;20240;-81
2021/03/02 00:25:57;;;;;;;52.67;25.43;;;3.90;99.90;;;;;;5097896;28;20568;-79
2021/03/02 00:28:43;;;;;;;53.93;25.77;;;3.80;99.90;;;;;;5101545;28;20346;-80
2021/03/02 00:31:30;;;;;;;56.67;26.10;;;3.80;99.90;;;;;;5114599;28;20228;-80
2021/03/02 00:34:15;;;;;;;62.93;26.57;;;3.80;99.90;;;;;;5105355;28;20210;-80
2021/03/02 00:37:01;;;;;;;57.50;28.23;;;3.80;99.90;;;;;;5103494;28;20237;-81
2021/03/02 00:39:45;;;;;;;60.80;26.93;;;3.70;99.90;;;;;;5110592;28;20205;-80
2021/03/02 00:42:30;;;;;;;57.03;28.13;;;3.80;99.90;;;;;;5114231;28;20224;-82
2021/03/02 00:45:16;;;;;;;61.00;27.27;;;3.70;99.90;;;;;;5110128;28;20212;-81
2021/03/02 00:48:02;;;;;;;62.10;24.93;;;3.70;99.90;;;;;;5096878;28;20510;-80
2021/03/02 00:50:47;;;;;;;65.90;27.83;;;3.70;99.90;;;;;;5106061;28;20242;-81
2021/03/02 00:53:32;;;;;;;66.30;29.93;;;3.60;99.90;;;;;;5108233;28;20221;-80
2021/03/02 00:56:17;;;;;;;64.57;28.07;;;3.60;99.90;;;;;;5106303;28;20224;-80
2021/03/02 00:59:02;;;;;;;68.37;26.90;;;3.60;99.90;;;;;;5097539;28;20605;-80
2021/03/02 01:01:47;;;;;;;65.53;28.30;;;3.60;99.90;;;;;;5106093;28;20224;-79
2021/03/02 01:04:33;;;;;;;67.20;30.10;;;3.50;99.90;;;;;;5101565;28;20251;-79
2021/03/02 01:07:18;;;;;;;67.93;28.47;;;3.60;99.90;;;;;;5108346;28;20272;-81
2021/03/02 01:10:03;;;;;;;63.77;28.00;;;3.50;99.90;;;;;;5107804;28;20720;-80
2021/03/02 01:12:48;;;;;;;71.33;29.47;;;3.50;99.90;;;;;;5103056;28;20236;-80
2021/03/02 01:15:33;;;;;;;63.77;27.20;;;3.50;99.90;;;;;;5109902;28;20213;-80
2021/03/02 01:18:17;;;;;;;69.57;28.17;;;3.50;99.90;;;;;;5105419;28;20226;-80
2021/03/02 01:21:04;;;;;;;65.97;30.97;;;3.50;99.90;;;;;;5106456;28;20253;-81
2021/03/02 01:23:49;;;;;;;64.43;29.57;;;3.40;99.90;;;;;;5106071;28;20566;-80
2021/03/02 01:26:33;;;;;;;69.77;28.60;;;3.40;99.90;;;;;;5129378;28;20217;-81
2021/03/02 01:29:18;;;;;;;67.50;29.87;;;3.40;99.90;;;;;;5131616;28;20231;-81
2021/03/02 01:32:03;;;;;;;60.93;26.47;;;3.40;99.90;;;;;;5117003;28;20216;-82
2021/03/02 01:34:48;;;;;;;55.40;25.70;;;3.30;99.90;;;;;;5120787;28;20210;-81
2021/03/02 01:37:34;;;;;;;68.80;29.17;;;3.30;99.90;;;;;;5110561;28;20200;-80
2021/03/02 01:40:19;;;;;;;66.70;28.50;;;3.30;99.90;;;;;;5112270;28;20209;-80
2021/03/02 01:43:05;;;;;;;60.93;28.13;;;3.30;99.90;;;;;;5100153;28;20271;-82
2021/03/02 01:45:50;;;;;;;57.23;26.40;;;3.30;99.90;;;;;;5116456;28;20204;-80
2021/03/02 01:48:35;;;;;;;63.20;26.57;;;3.20;99.90;;;;;;5106928;28;20204;-81
2021/03/02 01:51:20;;;;;;;61.70;26.57;;;3.20;99.90;;;;;;5113709;28;20231;-80
2021/03/02 01:54:06;;;;;;;67.60;29.83;;;3.20;99.90;;;;;;5106303;28;20250;-81
2021/03/02 01:56:51;;;;;;;63.27;27.17;;;3.10;99.90;;;;;;5105651;28;20193;-80
2021/03/02 01:59:36;;;;;;;62.53;26.53;;;3.10;99.90;;;;;;5099283;28;20771;-79
2021/03/02 02:02:28;;;;;;;66.87;27.07;;;3.10;99.90;;;;;;5101702;28;20248;-81
2021/03/02 02:05:14;;;;;;;63.43;25.97;;;3.10;99.90;;;;;;5098392;28;20236;-80
2021/03/02 02:08:05;;;;;;;65.80;28.50;;;3.10;99.90;;;;;;5097765;28;20259;-81
2021/03/02 02:10:55;;;;;;;68.93;27.73;;;3.00;99.90;;;;;;5096451;28;20275;-81
2021/03/02 02:13:44;;;;;;;64.87;28.87;;;3.00;99.90;;;;;;5111853;28;20688;-81
2021/03/02 02:16:30;;;;;;;74.43;29.57;;;3.00;99.90;;;;;;5112407;28;20243;-80
2021/03/02 02:19:34;;;;;;;61.60;27.87;;;2.90;99.90;;;;;;5117981;28;20574;-82
2021/03/02 02:22:29;;;;;;;69.27;27.43;;;2.90;99.90;;;;;;5103039;28;20244;-81
2021/03/02 02:25:28;;;;;;;65.30;29.27;;;2.90;99.90;;;;;;5102689;28;20205;-83
2021/03/02 02:28:16;;;;;;;76.43;28.30;;;2.80;99.90;;;;;;5104804;28;20268;-81
2021/03/02 02:31:03;;;;;;;67.17;28.93;;;2.80;99.90;;;;;;5104809;28;20592;-81
2021/03/02 02:33:50;;;;;;;67.87;27.73;;;2.80;99.90;;;;;;5105501;28;20204;-79
2021/03/02 02:36:35;;;;;;;71.40;30.97;;;2.70;99.90;;;;;;5116488;28;20231;-80
2021/03/02 02:39:21;;;;;;;73.87;28.90;;;2.70;99.90;;;;;;5102441;28;20201;-80
2021/03/02 02:42:07;;;;;;;81.73;32.40;;;2.70;99.90;;;;;;5105556;28;20747;-81
2021/03/02 02:44:54;;;;;;;73.60;29.07;;;2.60;99.90;;;;;;5115122;28;20196;-79
2021/03/02 02:47:39;;;;;;;77.27;30.90;;;2.70;99.90;;;;;;5113709;28;20724;-81
2021/03/02 02:50:24;;;;;;;73.10;31.33;;;2.60;99.90;;;;;;5109863;28;20221;-80
2021/03/02 02:53:12;;;;;;;87.83;31.93;;;2.60;99.90;;;;;;5100833;28;20560;-80
2021/03/02 02:56:00;;;;;;;80.80;30.97;;;2.60;99.90;;;;;;5109968;28;20209;-81
2021/03/02 02:58:59;;;;;;;83.30;29.63;;;2.60;99.90;;;;;;5103801;28;20212;-80
2021/03/02 03:01:49;;;;;;;83.17;30.70;;;2.50;99.90;;;;;;5099417;28;20847;-79
2021/03/02 03:04:39;;;;;;;89.00;33.70;;;2.50;99.90;;;;;;5110838;28;20770;-80
2021/03/02 03:07:30;;;;;;;83.47;33.97;;;2.50;99.90;;;;;;5102463;28;20243;-81
2021/03/02 03:10:15;;;;;;;89.43;33.93;;;2.50;99.90;;;;;;5102608;28;20244;-81
2021/03/02 03:13:02;;;;;;;95.50;35.43;;;2.50;99.90;;;;;;5104976;28;20250;-81
2021/03/02 03:15:50;;;;;;;95.10;34.47;;;2.50;99.90;;;;;;5097361;28;20206;-81
2021/03/02 03:18:45;;;;;;;94.77;35.10;;;2.50;99.90;;;;;;5102823;28;20624;-81
2021/03/02 03:21:32;;;;;;;98.77;35.57;;;2.50;99.90;;;;;;5113136;28;20212;-80
2021/03/02 03:24:18;;;;;;;108.63;38.13;;;2.50;99.90;;;;;;5096694;28;20204;-81
2021/03/02 03:27:04;;;;;;;97.90;35.23;;;2.50;99.90;;;;;;5096808;28;20221;-79
2021/03/02 03:29:50;;;;;;;84.03;35.13;;;2.40;99.90;;;;;;5111482;28;20212;-80
2021/03/02 03:32:36;;;;;;;97.90;33.97;;;2.40;99.90;;;;;;5103737;28;20233;-82
2021/03/02 03:35:24;;;;;;;94.17;34.17;;;2.40;99.90;;;;;;5105372;28;20281;-80
2021/03/02 03:38:09;;;;;;;93.70;35.07;;;2.40;99.90;;;;;;5112746;28;20200;-81
2021/03/02 03:40:54;;;;;;;93.03;35.77;;;2.40;99.90;;;;;;5117512;28;20227;-81
2021/03/02 03:43:39;;;;;;;103.63;35.27;;;2.40;99.90;;;;;;5098128;28;20200;-80
2021/03/02 03:46:24;;;;;;;86.27;35.53;;;2.40;99.90;;;;;;5104436;28;20255;-81
2021/03/02 03:49:09;;;;;;;95.13;35.73;;;2.40;99.90;;;;;;5101319;28;20209;-80
2021/03/02 03:51:57;;;;;;;103.23;36.93;;;2.40;99.90;;;;;;5102321;28;20232;-80
2021/03/02 03:54:43;;;;;;;106.63;37.80;;;2.40;99.90;;;;;;5102749;28;20201;-80
2021/03/02 03:57:28;;;;;;;96.07;36.00;;;2.40;99.90;;;;;;5100877;28;20209;-82
2021/03/02 04:00:15;;;;;;;107.23;37.57;;;2.30;99.90;;;;;;5100344;28;20716;-81
2021/03/02 04:03:01;;;;;;;101.93;37.73;;;2.30;99.90;;;;;;5100931;28;20212;-81
2021/03/02 04:05:47;;;;;;;98.27;35.37;;;2.30;99.90;;;;;;5101612;28;20216;-80
2021/03/02 04:08:33;;;;;;;101.00;35.13;;;2.30;99.90;;;;;;5101558;28;21927;-80
2021/03/02 04:11:18;;;;;;;85.77;32.83;;;2.40;99.90;;;;;;5102784;28;20799;-81
2021/03/02 04:14:03;;;;;;;90.97;32.30;;;2.30;99.90;;;;;;5116836;28;20251;-80
2021/03/02 04:16:48;;;;;;;87.33;34.70;;;2.30;99.90;;;;;;5114663;28;20197;-79
2021/03/02 04:19:35;;;;;;;76.43;29.43;;;2.30;99.90;;;;;;5105685;28;20246;-81
2021/03/02 04:22:19;;;;;;;88.67;31.60;;;2.40;99.90;;;;;;5102561;28;20228;-80
2021/03/02 04:25:06;;;;;;;85.40;32.57;;;2.20;99.90;;;;;;5101389;28;20240;-79
2021/03/02 04:27:51;;;;;;;73.70;30.90;;;2.20;99.90;;;;;;5108400;28;20252;-82
2021/03/02 04:30:36;;;;;;;80.53;31.30;;;2.20;99.90;;;;;;5105656;28;20750;-80
2021/03/02 04:33:21;;;;;;;85.97;32.77;;;2.20;99.90;;;;;;5100618;28;20209;-82
2021/03/02 04:36:06;;;;;;;92.50;31.90;;;2.20;99.90;;;;;;5100314;28;20262;-80
2021/03/02 04:38:51;;;;;;;87.00;34.23;;;2.20;99.90;;;;;;5111357;28;20215;-79
2021/03/02 04:41:37;;;;;;;78.37;29.23;;;2.20;99.90;;;;;;5111343;28;20830;-80
2021/03/02 04:44:21;;;;;;;92.87;33.47;;;2.10;99.90;;;;;;5100143;28;20217;-79
2021/03/02 04:47:06;;;;;;;87.00;32.50;;;2.10;99.90;;;;;;5106954;28;20241;-78
2021/03/02 04:49:51;;;;;;;86.53;28.83;;;2.10;99.90;;;;;;5101814;28;20791;-81
2021/03/02 04:52:36;;;;;;;87.93;31.57;;;2.10;99.90;;;;;;5118480;28;20225;-81
2021/03/02 04:55:21;;;;;;;80.50;31.20;;;2.10;99.90;;;;;;5109507;28;20220;-79
2021/03/02 04:58:07;;;;;;;83.70;32.73;;;2.10;99.90;;;;;;5102068;28;20573;-80
2021/03/02 05:00:52;;;;;;;83.90;31.87;;;2.10;99.90;;;;;;5103436;28;20220;-80
2021/03/02 05:03:36;;;;;;;78.90;30.30;;;2.10;99.90;;;;;;5109044;28;20208;-82
2021/03/02 05:06:21;;;;;;;81.63;30.60;;;2.00;99.90;;;;;;5111638;28;20289;-79
2021/03/02 05:09:06;;;;;;;78.83;30.13;;;2.00;99.90;;;;;;5104735;28;20228;-81
2021/03/02 05:11:53;;;;;;;76.20;30.83;;;2.00;99.90;;;;;;5111870;28;20590;-81
2021/03/02 05:14:39;;;;;;;82.43;32.47;;;2.00;99.90;;;;;;5101697;28;20204;-80
2021/03/02 05:17:24;;;;;;;78.33;28.97;;;1.90;99.90;;;;;;5109615;28;20204;-80
2021/03/02 05:20:10;;;;;;;97.23;32.83;;;1.90;99.90;;;;;;5103551;28;20585;-80
2021/03/02 05:22:55;;;;;;;85.40;32.13;;;1.90;99.90;;;;;;5102694;28;20228;-80
2021/03/02 05:25:40;;;;;;;77.13;28.17;;;1.90;99.90;;;;;;5108679;28;20197;-81
2021/03/02 05:28:25;;;;;;;77.87;30.07;;;1.90;99.90;;;;;;5110753;28;20593;-79
2021/03/02 05:31:10;;;;;;;72.40;28.93;;;1.90;99.90;;;;;;5107413;28;20223;-79
2021/03/02 05:33:55;;;;;;;78.40;32.33;;;1.80;99.90;;;;;;5105302;28;20216;-80
2021/03/02 05:36:40;;;;;;;81.50;33.50;;;1.80;99.90;;;;;;5104689;28;20248;-80
2021/03/02 05:39:25;;;;;;;86.97;30.53;;;1.80;99.90;;;;;;5107971;28;20614;-80
2021/03/02 05:42:12;;;;;;;88.57;34.63;;;1.70;99.90;;;;;;5104164;28;20355;-80
2021/03/02 05:44:57;;;;;;;86.43;32.03;;;1.90;99.90;;;;;;5098076;28;20204;-80
2021/03/02 05:47:44;;;;;;;90.03;32.33;;;1.80;99.90;;;;;;5098243;28;20213;-81
2021/03/02 05:50:29;;;;;;;81.27;31.20;;;1.70;99.90;;;;;;5113175;28;20585;-80
2021/03/02 05:53:14;;;;;;;87.63;30.57;;;1.70;99.90;;;;;;5112487;28;20204;-82
2021/03/02 05:55:59;;;;;;;92.90;33.50;;;1.70;99.90;;;;;;5105430;28;20209;-79
2021/03/02 05:58:44;;;;;;;97.37;33.83;;;1.70;99.90;;;;;;5111937;28;20263;-80
2021/03/02 06:01:29;;;;;;;84.30;33.77;;;1.70;99.90;;;;;;5110457;28;20239;-80
2021/03/02 06:04:16;;;;;;;105.37;36.00;;;1.70;99.90;;;;;;5099178;28;20259;-79
2021/03/02 06:07:01;;;;;;;87.97;33.67;;;1.70;99.90;;;;;;5104219;28;20229;-81
2021/03/02 06:09:48;;;;;;;105.50;35.87;;;1.60;99.90;;;;;;5105668;28;20219;-80
2021/03/02 06:12:52;;;;;;;103.60;35.13;;;1.60;99.90;;;;;;5101278;28;20237;-80
2021/03/02 06:15:53;;;;;;;109.40;35.30;;;1.60;99.90;;;;;;5103954;28;20203;-80
2021/03/02 06:18:47;;;;;;;107.57;38.63;;;1.60;99.90;;;;;;5106777;28;20680;-80
2021/03/02 06:21:36;;;;;;;102.90;36.67;;;1.60;99.90;;;;;;5097150;28;20240;-82
2021/03/02 06:24:37;;;;;;;113.07;39.23;;;1.60;99.90;;;;;;5106055;28;20209;-80
2021/03/02 06:27:22;;;;;;;100.10;33.40;;;1.60;99.90;;;;;;5101907;28;20219;-80
2021/03/02 06:30:10;;;;;;;101.27;36.70;;;1.60;99.90;;;;;;5112466;28;20203;-81
2021/03/02 06:32:56;;;;;;;90.30;34.10;;;1.60;99.90;;;;;;5099286;28;20252;-80
2021/03/02 06:35:43;;;;;;;105.37;37.03;;;1.60;99.90;;;;;;5112533;28;20213;-80
2021/03/02 06:38:31;;;;;;;103.33;34.97;;;1.60;99.90;;;;;;5104838;28;20228;-80
2021/03/02 06:41:20;;;;;;;108.20;37.77;;;1.60;99.90;;;;;;5107893;28;20728;-81
2021/03/02 06:44:11;;;;;;;111.90;37.90;;;1.60;99.90;;;;;;5104032;28;20687;-80
2021/03/02 06:46:56;;;;;;;106.00;37.13;;;1.60;99.90;;;;;;5104515;28;20202;-81
2021/03/02 06:49:43;;;;;;;118.63;38.97;;;1.60;99.90;;;;;;5099145;28;20905;-80
2021/03/02 06:52:35;;;;;;;114.27;39.00;;;1.60;99.90;;;;;;5106894;28;20315;-80
2021/03/02 06:55:27;;;;;;;121.97;38.67;;;1.60;99.90;;;;;;5104613;28;20844;-81
2021/03/02 06:58:17;;;;;;;113.10;37.70;;;1.60;99.90;;;;;;5099279;28;20266;-79
2021/03/02 07:04:44;;;;;;;108.90;40.57;;;1.60;99.90;;;;;;5115272;28;20215;-80
2021/03/02 07:07:29;;;;;;;107.43;40.37;;;1.60;99.90;;;;;;5109079;28;20650;-79
2021/03/02 07:10:15;;;;;;;130.03;44.87;;;1.60;99.90;;;;;;5100426;28;20205;-81
2021/03/02 07:13:01;;;;;;;126.63;44.60;;;1.60;99.90;;;;;;5096502;28;20272;-80
2021/03/02 07:15:47;;;;;;;148.70;45.67;;;1.60;99.90;;;;;;5097495;28;20204;-79
2021/03/02 07:18:34;;;;;;;131.80;46.70;;;1.70;99.90;;;;;;5108687;28;20201;-81
2021/03/02 07:21:20;;;;;;;133.67;45.93;;;1.70;99.90;;;;;;5111659;28;20249;-81
2021/03/02 07:24:07;;;;;;;143.87;49.80;;;1.70;99.90;;;;;;5105649;28;20274;-80
2021/03/02 07:26:54;;;;;;;152.97;46.77;;;1.80;99.90;;;;;;5110323;28;21759;-81
2021/03/02 07:29:40;;;;;;;147.90;46.20;;;1.80;99.90;;;;;;5100259;28;20213;-80
2021/03/02 07:32:28;;;;;;;157.13;48.73;;;1.80;99.90;;;;;;5116423;28;20221;-80
2021/03/02 07:35:17;;;;;;;153.37;48.57;;;1.90;99.90;;;;;;5103063;28;20259;-79
2021/03/02 07:38:16;;;;;;;153.33;49.10;;;1.90;99.90;;;;;;5101775;28;20194;-80
2021/03/02 07:41:02;;;;;;;147.97;47.30;;;1.90;99.90;;;;;;5101581;28;20217;-80
2021/03/02 07:43:53;;;;;;;150.03;48.77;;;2.00;99.90;;;;;;5099066;28;20798;-81
2021/03/02 07:46:53;;;;;;;155.50;50.43;;;2.00;99.90;;;;;;5108834;28;20248;-80
2021/03/02 07:49:38;;;;;;;154.67;52.93;;;2.10;99.90;;;;;;5112797;28;20209;-80
2021/03/02 07:52:24;;;;;;;168.53;54.03;;;2.10;99.90;;;;;;5099122;28;20309;-81
2021/03/02 07:55:20;;;;;;;183.10;55.67;;;2.20;99.90;;;;;;5104064;28;20684;-79
2021/03/02 07:58:16;;;;;;;157.30;54.50;;;2.20;99.90;;;;;;5106372;28;20315;-81
2021/03/02 08:01:18;;;;;;;179.80;57.13;;;2.30;99.90;;;;;;5102817;28;20304;-81
2021/03/02 08:04:34;;;;;;;174.57;56.77;;;2.30;99.90;;;;;;5116750;28;20204;-80
2021/03/02 08:07:23;;;;;;;193.70;60.77;;;2.40;99.90;;;;;;5039637;28;20228;-79
2021/03/02 08:10:36;;;;;;;191.97;65.03;;;2.50;99.90;;;;;;5101785;28;20271;-80
2021/03/02 08:13:34;;;;;;;196.00;62.23;;;2.60;99.90;;;;;;5108809;28;20205;-80
2021/03/02 08:16:55;;;;;;;193.97;65.80;;;2.60;99.90;;;;;;5107669;28;20735;-81
2021/03/02 08:19:43;;;;;;;214.53;65.17;;;2.70;99.90;;;;;;5111067;28;20272;-80
2021/03/02 08:22:58;;;;;;;199.17;67.77;;;2.80;99.90;;;;;;5125606;28;20213;-82
2021/03/02 08:25:43;;;;;;;221.10;74.50;;;2.90;99.90;;;;;;5129306;28;20204;-81
2021/03/02 08:28:42;;;;;;;212.93;79.27;;;2.90;99.90;;;;;;5123581;28;20722;-81
2021/03/02 08:31:27;;;;;;;211.50;74.40;;;3.00;99.90;;;;;;5116217;28;20221;-81
2021/03/02 08:34:13;;;;;;;211.27;77.80;;;3.10;99.90;;;;;;5117938;28;20213;-80
2021/03/02 08:36:59;;;;;;;192.37;77.57;;;3.20;99.90;;;;;;5112119;28;20202;-81
2021/03/02 08:39:52;;;;;;;206.40;80.63;;;3.30;99.90;;;;;;5105782;28;20241;-81
2021/03/02 08:42:38;;;;;;;216.47;81.57;;;3.50;99.90;;;;;;5119973;28;20221;-80
2021/03/02 08:45:23;;;;;;;222.60;84.20;;;3.60;99.90;;;;;;5106826;28;20259;-81
2021/03/02 08:48:24;;;;;;;217.43;83.93;;;3.70;99.90;;;;;;5100705;28;20642;-81
2021/03/02 08:51:09;;;;;;;209.93;86.27;;;3.80;99.90;;;;;;5121700;28;20569;-79
2021/03/02 08:53:54;;;;;;;199.63;83.83;;;3.90;99.90;;;;;;5119174;28;20200;-80
2021/03/02 08:56:39;;;;;;;197.40;80.60;;;4.00;99.90;;;;;;5100512;28;20221;-81
2021/03/02 08:59:29;;;;;;;203.60;82.03;;;4.20;99.90;;;;;;5100821;28;20236;-81
2021/03/02 09:02:13;;;;;;;181.17;78.70;;;4.30;99.90;;;;;;5103749;28;20229;-82
2021/03/02 09:04:58;;;;;;;157.63;73.17;;;4.40;99.90;;;;;;5101281;28;20197;-80
2021/03/02 09:08:02;;;;;;;142.83;64.23;;;4.50;99.90;;;;;;5101060;28;20654;-81
2021/03/02 09:11:01;;;;;;;103.03;54.73;;;4.70;99.90;;;;;;5108947;28;20740;-81
2021/03/02 09:13:46;;;;;;;136.40;61.90;;;4.80;99.90;;;;;;5114666;28;20219;-81
2021/03/02 09:16:39;;;;;;;132.37;65.57;;;5.00;99.90;;;;;;5098997;28;20313;-82
2021/03/02 09:19:26;;;;;;;117.93;57.13;;;5.10;99.90;;;;;;5109236;28;20193;-81
2021/03/02 09:22:13;;;;;;;139.17;64.57;;;5.30;99.90;;;;;;5102316;28;20775;-82
2021/03/02 09:24:58;;;;;;;80.50;45.87;;;5.40;99.90;;;;;;5110163;28;20418;-80
2021/03/02 09:27:44;;;;;;;67.27;39.73;;;5.60;99.90;;;;;;5104692;28;20324;-82
2021/03/02 09:30:29;;;;;;;37.97;24.77;;;6.00;99.90;;;;;;5103162;28;20216;-81
2021/03/02 09:33:15;;;;;;;31.43;19.90;;;6.30;99.90;;;;;;5106998;28;20718;-80
2021/03/02 09:35:59;;;;;;;29.20;17.50;;;6.80;99.90;;;;;;5105414;28;20205;-81
2021/03/02 09:38:45;;;;;;;25.40;15.23;;;7.40;99.90;;;;;;5103760;28;20198;-82
2021/03/02 09:41:34;;;;;;;20.60;13.47;;;8.00;99.90;;;;;;5100090;28;20248;-81
2021/03/02 09:44:26;;;;;;;20.73;13.37;;;8.60;99.90;;;;;;5110909;28;20270;-81
2021/03/02 09:47:16;;;;;;;21.30;13.30;;;9.40;99.90;;;;;;5109419;28;20241;-82
2021/03/02 09:50:03;;;;;;;22.53;12.87;;;10.10;99.90;;;;;;5102679;28;20209;-82
2021/03/02 09:52:50;;;;;;;21.63;12.73;;;11.00;99.90;;;;;;5114149;28;20190;-81
2021/03/02 09:55:35;;;;;;;18.17;13.13;;;11.70;99.90;;;;;;5111146;28;20196;-82
2021/03/02 09:58:22;;;;;;;19.83;13.20;;;12.40;99.90;;;;;;5105716;28;20211;-82
2021/03/02 10:01:09;;;;;;;20.20;12.73;;;13.20;99.90;;;;;;5100621;28;20304;-81
2021/03/02 10:03:54;;;;;;;19.23;11.07;;;14.00;99.90;;;;;;5101270;28;20232;-81
2021/03/02 10:06:40;;;;;;;18.73;12.40;;;14.60;99.90;;;;;;5113753;28;20684;-83
2021/03/02 10:09:26;;;;;;;18.67;12.20;;;15.50;99.90;;;;;;5110558;28;20206;-82
2021/03/02 10:12:13;;;;;;;19.00;12.50;;;16.10;99.90;;;;;;5113818;28;20723;-82
2021/03/02 10:14:58;;;;;;;15.97;11.33;;;16.80;99.90;;;;;;5106524;28;20623;-82
2021/03/02 10:17:43;;;;;;;18.87;12.50;;;17.70;99.90;;;;;;5098675;28;20244;-83
2021/03/02 10:20:28;;;;;;;17.43;12.40;;;18.50;99.90;;;;;;5116966;28;20202;-83
2021/03/02 10:23:13;;;;;;;19.27;11.87;;;19.30;99.90;;;;;;5110564;28;20209;-83
2021/03/02 10:26:00;;;;;;;19.07;13.30;;;20.00;99.90;;;;;;5104574;28;20203;-82
2021/03/02 10:28:49;;;;;;;16.20;11.57;;;20.80;98.80;;;;;;5113071;28;20332;-83
2021/03/02 10:31:36;;;;;;;15.97;10.90;;;21.50;96.10;;;;;;5110975;28;20597;-82
2021/03/02 10:34:21;;;;;;;17.57;12.50;;;22.20;95.00;;;;;;5105702;28;20233;-83
2021/03/02 10:37:08;;;;;;;14.13;10.77;;;22.80;90.70;;;;;;5101954;28;20329;-82
2021/03/02 10:39:53;;;;;;;19.00;11.60;;;23.40;88.30;;;;;;5102644;28;20212;-83
2021/03/02 10:42:38;;;;;;;14.03;10.33;;;24.00;81.40;;;;;;5116403;28;20249;-83
2021/03/02 10:45:23;;;;;;;15.40;10.40;;;24.60;81.00;;;;;;5116835;28;20223;-83
2021/03/02 10:48:08;;;;;;;17.67;10.97;;;25.10;76.20;;;;;;5104802;28;20650;-83
2021/03/02 10:50:54;;;;;;;17.13;11.23;;;25.60;73.40;;;;;;5109064;28;20284;-83
2021/03/02 10:53:38;;;;;;;15.60;11.20;;;26.10;68.90;;;;;;5100223;28;20210;-83
2021/03/02 10:56:23;;;;;;;15.77;11.50;;;26.50;67.30;;;;;;5101755;28;20211;-83
2021/03/02 10:59:08;;;;;;;15.43;11.77;;;26.90;66.40;;;;;;5114659;28;20223;-83
2021/03/02 11:01:54;;;;;;;17.33;12.83;;;27.40;65.00;;;;;;5101011;28;20236;-84
2021/03/02 11:04:39;;;;;;;18.23;13.20;;;27.70;63.70;;;;;;5121523;28;20214;-82
2021/03/02 11:07:27;;;;;;;16.20;11.63;;;28.10;61.80;;;;;;5107460;28;20240;-84
2021/03/02 11:10:12;;;;;;;16.70;11.52;;;28.50;60.60;;;;;;5101172;28;20270;-84
2021/03/02 11:12:58;;;;;;;13.90;10.48;;;28.80;60.30;;;;;;5104316;28;20223;-84
2021/03/02 11:15:43;;;;;;;13.77;9.43;;;29.20;57.10;;;;;;5109167;28;20206;-84
2021/03/02 11:18:29;;;;;;;13.32;9.52;;;29.60;57.30;;;;;;5103108;28;20229;-83
2021/03/02 11:21:15;;;;;;;12.90;9.65;;;29.90;56.80;;;;;;5103969;28;20241;-84
2021/03/02 11:24:01;;;;;;;14.32;9.73;;;30.30;54.20;;;;;;5109866;28;20204;-83
2021/03/02 11:26:45;;;;;;;12.52;9.52;;;30.60;53.30;;;;;;5102519;28;20202;-83
2021/03/02 11:29:30;;;;;;;15.23;9.23;;;30.90;53.10;;;;;;5114502;28;20253;-84
2021/03/02 11:32:18;;;;;;;11.73;8.95;;;31.20;50.20;;;;;;5116667;28;20250;-83
2021/03/02 11:35:08;;;;;;;11.70;8.95;;;31.50;48.10;;;;;;5102206;28;20210;-83
2021/03/02 11:37:53;;;;;;;11.93;9.30;;;31.70;47.70;;;;;;5108853;28;20247;-82
2021/03/02 11:40:40;;;;;;;10.95;8.65;;;31.90;47.40;;;;;;5110043;28;20582;-85
2021/03/02 11:43:25;;;;;;;13.77;9.32;;;32.00;46.60;;;;;;5103007;28;20746;-83
2021/03/02 11:46:10;;;;;;;13.60;9.68;;;32.00;45.40;;;;;;5113936;28;20205;-84
2021/03/02 11:48:55;;;;;;;14.52;10.38;;;32.20;45.80;;;;;;5105944;28;20192;-84
2021/03/02 11:51:40;;;;;;;14.10;9.85;;;32.20;44.40;;;;;;5102723;28;20226;-84
2021/03/02 11:54:25;;;;;;;13.50;9.60;;;32.20;45.40;;;;;;5113066;28;20720;-82
2021/03/02 11:57:11;;;;;;;12.88;10.13;;;32.30;44.70;;;;;;5103854;28;20232;-83
2021/03/02 11:59:56;;;;;;;12.63;10.38;;;32.20;44.30;;;;;;5105226;28;20642;-85
2021/03/02 12:02:41;;;;;;;13.20;10.05;;;32.20;43.50;;;;;;5109537;28;20488;-84
2021/03/02 12:05:29;;;;;;;14.45;10.52;;;32.20;44.40;;;;;;5118626;28;20204;-84
2021/03/02 12:08:14;;;;;;;13.10;11.07;;;32.20;44.20;;;;;;5110057;28;20234;-83
2021/03/02 12:11:00;;;;;;;13.77;10.63;;;32.10;43.80;;;;;;5103727;28;20310;-83
2021/03/02 12:13:45;;;;;;;12.52;9.93;;;32.10;44.70;;;;;;5109999;28;20262;-84
2021/03/02 12:16:30;;;;;;;12.70;10.52;;;32.10;44.40;;;;;;5114574;28;20200;-84
2021/03/02 12:19:15;;;;;;;12.77;9.77;;;32.20;44.70;;;;;;5111412;28;20211;-84
2021/03/02 12:22:00;;;;;;;13.30;10.07;;;32.20;44.30;;;;;;5114473;28;20255;-84
2021/03/02 12:24:48;;;;;;;13.27;10.48;;;32.40;43.50;;;;;;5118465;28;20237;-84
2021/03/02 12:27:34;;;;;;;15.27;11.40;;;32.40;43.20;;;;;;5122489;28;20691;-84
2021/03/02 12:30:20;;;;;;;13.00;10.65;;;32.50;42.70;;;;;;5106965;28;20586;-84
2021/03/02 12:33:06;;;;;;;12.05;9.13;;;32.60;43.30;;;;;;5113373;28;20232;-84
2021/03/02 12:35:51;;;;;;;13.63;9.38;;;32.60;42.90;;;;;;5111493;28;20226;-84
2021/03/02 12:38:36;;;;;;;14.68;11.90;;;32.70;42.80;;;;;;5101977;28;20480;-83
2021/03/02 12:41:21;;;;;;;14.30;11.27;;;32.80;42.80;;;;;;5103231;28;20233;-84
2021/03/02 12:44:12;;;;;;;15.23;12.05;;;32.80;42.40;;;;;;5112382;28;20732;-86
2021/03/02 12:46:59;;;;;;;15.57;12.25;;;32.80;42.90;;;;;;5112148;28;20725;-86
2021/03/02 12:49:45;;;;;;;14.07;10.90;;;32.80;42.00;;;;;;5115348;28;20200;-84
2021/03/02 12:52:29;;;;;;;13.80;11.35;;;32.90;42.90;;;;;;5108766;28;20229;-85
2021/03/02 12:55:15;;;;;;;14.27;11.13;;;32.90;42.70;;;;;;5122843;28;20209;-84
2021/03/02 12:57:59;;;;;;;13.80;10.82;;;32.80;40.60;;;;;;5109742;28;20221;-85
2021/03/02 13:00:44;;;;;;;14.45;12.05;;;32.70;41.60;;;;;;5105888;28;20293;-85
2021/03/02 13:03:30;;;;;;;13.73;11.05;;;32.60;41.00;;;;;;5109634;28;20209;-85
2021/03/02 13:06:16;;;;;;;15.18;12.25;;;32.50;42.10;;;;;;5108293;28;20266;-84
2021/03/02 13:09:01;;;;;;;15.40;12.80;;;32.40;41.70;;;;;;5110330;28;20684;-84
2021/03/02 13:11:46;;;;;;;16.90;13.35;;;32.40;42.20;;;;;;5117288;28;20251;-84
2021/03/02 13:14:35;;;;;;;15.65;11.80;;;32.40;42.50;;;;;;5105949;28;20292;-83
2021/03/02 13:17:22;;;;;;;16.58;12.60;;;32.40;45.20;;;;;;5102447;28;20205;-84
2021/03/02 13:20:09;;;;;;;14.38;11.88;;;32.50;42.20;;;;;;5102180;28;20259;-85
2021/03/02 13:22:54;;;;;;;18.63;12.52;;;32.50;41.60;;;;;;5105087;28;20209;-84
2021/03/02 13:25:38;;;;;;;13.57;11.68;;;32.80;41.40;;;;;;5116749;28;20208;-85
2021/03/02 13:28:26;;;;;;;15.00;12.25;;;32.70;41.90;;;;;;5109321;28;20270;-85
2021/03/02 13:31:12;;;;;;;17.25;12.77;;;32.70;41.20;;;;;;5109314;28;20244;-85
2021/03/02 13:34:00;;;;;;;16.05;11.80;;;32.70;40.90;;;;;;5108078;28;20571;-84
2021/03/02 13:36:49;;;;;;;16.15;12.75;;;32.60;41.60;;;;;;5116856;28;20204;-84
2021/03/02 13:39:34;;;;;;;15.60;11.93;;;32.60;41.10;;;;;;5105833;28;20256;-85
2021/03/02 13:42:23;;;;;;;15.85;12.93;;;32.50;41.50;;;;;;5103156;28;20233;-84
2021/03/02 13:45:10;;;;;;;14.75;12.50;;;32.60;42.10;;;;;;5107937;28;20208;-84
2021/03/02 13:47:59;;;;;;;16.77;12.45;;;32.40;40.60;;;;;;5121873;28;20205;-85
2021/03/02 13:50:44;;;;;;;14.77;12.00;;;32.40;41.40;;;;;;5101795;28;20240;-86
2021/03/02 13:53:31;;;;;;;13.18;10.80;;;32.30;41.30;;;;;;5102266;28;20251;-84
2021/03/02 14:14:55;;;;;;;14.95;12.05;;;31.70;43.40;;;;;;4697692;30;20745;-84
2021/03/02 14:17:43;;;;;;;16.98;13.00;;;31.50;42.30;;;;;;4881710;28;21030;-83
2021/03/02 14:20:29;;;;;;;17.33;11.57;;;31.50;42.50;;;;;;5077110;28;20246;-83
2021/03/02 14:23:15;;;;;;;15.00;11.25;;;31.30;41.50;;;;;;5111579;28;20262;-83
2021/03/02 14:26:06;;;;;;;15.20;12.05;;;31.30;41.80;;;;;;5107918;28;20238;-83
2021/03/02 14:28:54;;;;;;;17.30;11.25;;;31.10;42.80;;;;;;5103351;28;20261;-83
2021/03/02 14:31:42;;;;;;;16.60;11.73;;;31.00;44.70;;;;;;5110879;28;20273;-84
2021/03/02 14:34:28;;;;;;;20.25;12.85;;;30.90;43.40;;;;;;5103614;28;20217;-83